Time;durP1;ratioP1;P1;durP2;ratioP2;P2;SDS_P1;SDS_P2;PMS_P1;PMS_P2;Temp;Humidity;BMP_temperature;BMP_pressure;BME280_temperature;BME280_humidity;BME280_pressure;Samples;Min_cycle;Max_cycle;Signal;HPM_P1;HPM_P2
2021/10/07 00:00:24;;;;;;;5.63;3.13;;;;;;;-139.48;100.00;61774.03;4975109;28;20074;-70
2021/10/07 00:03:08;;;;;;;11.60;3.42;;;;;;;-139.48;100.00;61774.03;4961427;28;20096;-71
2021/10/07 00:05:52;;;;;;;6.35;3.42;;;;;;;-139.48;100.00;61774.03;4961078;28;20077;-71
2021/10/07 00:08:36;;;;;;;9.57;3.53;;;;;;;-139.48;100.00;61774.03;4975934;28;20097;-71
2021/10/07 00:11:20;;;;;;;8.05;3.40;;;;;;;-139.48;100.00;61774.03;4961019;28;20085;-71
2021/10/07 00:14:05;;;;;;;5.38;3.70;;;;;;;-139.48;100.00;61774.03;4973870;28;20416;-71
2021/10/07 00:16:49;;;;;;;9.00;3.05;;;;;;;-139.48;100.00;61774.03;4960950;28;20058;-71
2021/10/07 00:19:33;;;;;;;12.77;3.80;;;;;;;-139.48;100.00;61774.03;4960812;28;20062;-71
2021/10/07 00:22:17;;;;;;;6.55;3.50;;;;;;;-139.48;100.00;61774.03;4974426;28;20137;-71
2021/10/07 00:25:01;;;;;;;6.43;3.78;;;;;;;-139.48;100.00;61774.03;4974694;28;20050;-71
2021/10/07 00:27:45;;;;;;;8.30;3.63;;;;;;;-139.48;100.00;61774.03;4974629;28;20138;-71
2021/10/07 00:30:30;;;;;;;4.82;3.72;;;;;;;-139.48;100.00;61774.03;4974281;28;20523;-70
2021/10/07 00:33:23;;;;;;;13.02;3.80;;;;;;;-139.48;100.00;61774.03;4975594;28;20053;-71
2021/10/07 00:36:26;;;;;;;11.27;4.22;;;;;;;-139.48;100.00;61774.03;4975099;28;20050;-71
2021/10/07 00:39:10;;;;;;;11.02;4.05;;;;;;;-139.48;100.00;61774.03;4974336;28;20554;-71
2021/10/07 00:41:54;;;;;;;9.90;4.40;;;;;;;-139.48;100.00;61774.03;4974376;28;20526;-71
2021/10/07 00:44:41;;;;;;;6.03;4.18;;;;;;;-139.48;100.00;61774.03;4974399;28;20049;-71
2021/10/07 00:47:24;;;;;;;6.60;4.10;;;;;;;-139.48;100.00;61774.03;4974207;28;20070;-71
2021/10/07 00:50:08;;;;;;;7.13;4.20;;;;;;;-139.48;100.00;61774.03;4960577;28;20186;-71
2021/10/07 00:52:52;;;;;;;7.90;4.32;;;;;;;-139.48;100.00;61774.03;4973873;28;20050;-71
2021/10/07 00:55:36;;;;;;;8.93;4.30;;;;;;;-139.48;100.00;61774.03;4973887;28;20141;-71
2021/10/07 00:58:21;;;;;;;9.57;4.28;;;;;;;-139.48;100.00;61774.03;4974163;28;20049;-71
2021/10/07 01:01:05;;;;;;;14.30;4.47;;;;;;;-139.48;100.00;61774.03;4974076;28;20115;-71
2021/10/07 01:03:49;;;;;;;8.77;4.55;;;;;;;-139.48;100.00;61774.03;4973807;28;20042;-70
2021/10/07 01:06:33;;;;;;;9.52;4.53;;;;;;;-139.48;100.00;61774.03;4973971;28;20057;-71
2021/10/07 01:09:17;;;;;;;9.35;4.40;;;;;;;-139.48;100.00;61774.03;4960227;28;20129;-70
2021/10/07 01:12:03;;;;;;;7.30;4.13;;;;;;;-139.48;100.00;61774.03;4973670;28;20592;-71
2021/10/07 01:14:52;;;;;;;9.45;4.47;;;;;;;-139.48;100.00;61774.03;4973599;28;20046;-72
2021/10/07 01:17:36;;;;;;;14.57;5.28;;;;;;;-139.48;100.00;61774.03;4973887;28;20045;-71
2021/10/07 01:20:20;;;;;;;14.68;5.22;;;;;;;-139.48;100.00;61774.03;4973657;28;20132;-71
2021/10/07 01:23:04;;;;;;;9.57;4.82;;;;;;;-139.48;100.00;61774.03;4974778;28;20096;-71
2021/10/07 01:25:48;;;;;;;8.68;4.70;;;;;;;-139.48;100.00;61774.03;4974511;28;20054;-71
2021/10/07 01:28:32;;;;;;;9.93;4.82;;;;;;;-139.48;100.00;61774.03;4973538;28;20082;-71
2021/10/07 01:31:17;;;;;;;12.30;4.55;;;;;;;-139.48;100.00;61774.03;4960308;28;20439;-71
2021/10/07 01:34:01;;;;;;;9.05;4.97;;;;;;;-139.48;100.00;61774.03;4973566;28;20101;-70
2021/10/07 01:36:45;;;;;;;8.95;4.68;;;;;;;-139.48;100.00;61774.03;4959933;28;20221;-71
2021/10/07 01:39:29;;;;;;;8.48;4.65;;;;;;;-139.48;100.00;61774.03;4973630;28;20411;-71
2021/10/07 01:42:12;;;;;;;9.50;4.68;;;;;;;-139.48;100.00;61774.03;4959903;28;20428;-71
2021/10/07 01:44:56;;;;;;;12.43;4.55;;;;;;;-139.48;100.00;61774.03;4973560;28;20050;-71
2021/10/07 01:47:40;;;;;;;13.00;5.28;;;;;;;-139.48;100.00;61774.03;4974233;28;20420;-71
2021/10/07 01:50:25;;;;;;;9.60;4.20;;;;;;;-139.48;100.00;61774.03;4959868;28;20054;-71
2021/10/07 01:53:09;;;;;;;7.07;4.45;;;;;;;-139.48;100.00;61774.03;4974060;28;20050;-71
2021/10/07 01:55:52;;;;;;;8.57;4.20;;;;;;;-139.48;100.00;61774.03;4973316;28;20121;-71
2021/10/07 01:58:36;;;;;;;10.75;5.10;;;;;;;-139.48;100.00;61774.03;4974381;28;20053;-71
2021/10/07 02:01:20;;;;;;;7.00;4.82;;;;;;;-139.48;100.00;61774.03;4959971;28;20050;-71
2021/10/07 02:04:05;;;;;;;6.93;4.50;;;;;;;-139.48;100.00;61774.03;4973393;28;20147;-70
2021/10/07 02:06:49;;;;;;;10.40;5.07;;;;;;;-139.48;100.00;61774.03;4973018;28;20089;-70
2021/10/07 02:09:33;;;;;;;10.38;4.68;;;;;;;-139.48;100.00;61774.03;4959444;28;20089;-71
2021/10/07 02:12:17;;;;;;;10.07;4.35;;;;;;;-139.48;100.00;61774.03;4973268;28;20049;-71
2021/10/07 02:15:01;;;;;;;8.07;4.22;;;;;;;-139.48;100.00;61774.03;4959620;28;20042;-70
2021/10/07 02:17:45;;;;;;;9.40;5.18;;;;;;;-139.48;100.00;61774.03;4973251;28;20128;-71
2021/10/07 02:20:28;;;;;;;7.72;4.70;;;;;;;-139.48;100.00;61774.03;4973012;28;20089;-71
2021/10/07 02:23:12;;;;;;;7.03;4.57;;;;;;;-139.48;100.00;61774.03;4974433;28;20091;-71
2021/10/07 02:25:56;;;;;;;8.73;4.55;;;;;;;-139.48;100.00;61774.03;4972647;28;20054;-71
2021/10/07 02:28:40;;;;;;;7.85;4.85;;;;;;;-139.48;100.00;61774.03;4974659;28;20122;-69
2021/10/07 02:31:24;;;;;;;9.77;4.63;;;;;;;-139.48;100.00;61774.03;4972848;28;20049;-71
2021/10/07 02:34:08;;;;;;;9.57;4.18;;;;;;;-139.48;100.00;61774.03;4973056;28;20411;-71
2021/10/07 02:36:52;;;;;;;8.48;4.47;;;;;;;-139.48;100.00;61774.03;4975107;28;20053;-71
2021/10/07 02:39:37;;;;;;;10.35;5.10;;;;;;;-139.48;100.00;61774.03;4976605;28;20089;-71
2021/10/07 02:42:21;;;;;;;7.70;4.20;;;;;;;-139.48;100.00;61774.03;4962913;28;20101;-71
2021/10/07 02:45:07;;;;;;;10.18;4.80;;;;;;;-139.48;100.00;61774.03;4976547;28;20101;-68
2021/10/07 02:47:51;;;;;;;8.70;4.57;;;;;;;-139.48;100.00;61774.03;4976256;28;20142;-71
2021/10/07 02:50:35;;;;;;;9.93;4.68;;;;;;;-139.48;100.00;61774.03;4976449;28;20049;-71
2021/10/07 02:53:19;;;;;;;9.65;4.90;;;;;;;-139.48;100.00;61774.03;4976063;28;20050;-71
2021/10/07 02:56:04;;;;;;;6.90;4.78;;;;;;;-139.48;100.00;61774.03;4962572;28;20046;-70
2021/10/07 02:58:48;;;;;;;8.32;5.05;;;;;;;-139.48;100.00;61774.03;4976287;28;20503;-70
2021/10/07 03:01:32;;;;;;;12.10;5.13;;;;;;;-139.48;100.00;61774.03;4976269;28;20053;-71
2021/10/07 03:04:16;;;;;;;7.65;4.50;;;;;;;-139.48;100.00;61774.03;4977053;28;20042;-71
2021/10/07 03:07:00;;;;;;;10.52;4.20;;;;;;;-139.48;100.00;61774.03;4977132;28;20049;-71
2021/10/07 03:09:44;;;;;;;8.98;4.53;;;;;;;-139.48;100.00;61774.03;4975818;28;20130;-71
2021/10/07 03:12:28;;;;;;;10.30;5.15;;;;;;;-139.48;100.00;61774.03;4962023;28;20534;-71
2021/10/07 03:15:12;;;;;;;13.27;5.03;;;;;;;-139.48;100.00;61774.03;4976921;28;20112;-71
2021/10/07 03:17:56;;;;;;;12.07;5.30;;;;;;;-139.48;100.00;61774.03;4976208;28;20058;-72
2021/10/07 03:20:40;;;;;;;8.55;4.70;;;;;;;-139.48;100.00;61774.03;4975758;28;20081;-71
2021/10/07 03:23:24;;;;;;;22.42;5.18;;;;;;;-139.48;100.00;61774.03;4976794;28;20495;-70
2021/10/07 03:26:08;;;;;;;8.10;5.60;;;;;;;-139.48;100.00;61774.03;4962197;28;20050;-71
2021/10/07 03:28:52;;;;;;;9.65;4.95;;;;;;;-139.48;100.00;61774.03;4962047;28;20468;-70
2021/10/07 03:31:36;;;;;;;8.90;4.93;;;;;;;-139.48;100.00;61774.03;4976893;28;20050;-70
2021/10/07 03:34:20;;;;;;;10.07;5.28;;;;;;;-139.48;100.00;61774.03;4975591;28;20459;-71
2021/10/07 03:37:04;;;;;;;9.50;5.50;;;;;;;-139.48;100.00;61774.03;4975413;28;20411;-71
2021/10/07 03:39:48;;;;;;;11.98;5.40;;;;;;;-139.48;100.00;61774.03;4975798;28;20054;-71
2021/10/07 03:42:32;;;;;;;9.55;4.85;;;;;;;-139.48;100.00;61774.03;4975489;28;20053;-71
2021/10/07 03:45:16;;;;;;;12.93;5.65;;;;;;;-139.48;100.00;61774.03;4988951;28;20123;-71
2021/10/07 03:48:01;;;;;;;8.38;5.43;;;;;;;-139.48;100.00;61774.03;4960480;28;20050;-71
2021/10/07 03:50:45;;;;;;;7.53;4.95;;;;;;;-139.48;100.00;61774.03;4961945;28;20053;-71
2021/10/07 03:53:29;;;;;;;14.30;5.95;;;;;;;-139.48;100.00;61774.03;4975092;28;20077;-70
2021/10/07 03:56:13;;;;;;;9.30;5.30;;;;;;;-139.48;100.00;61774.03;4961474;28;20085;-71
2021/10/07 03:58:57;;;;;;;13.32;6.70;;;;;;;-139.48;100.00;61774.03;4974888;28;20052;-71
2021/10/07 04:01:42;;;;;;;9.63;6.00;;;;;;;-139.48;100.00;61774.03;4975039;28;20481;-70
2021/10/07 04:04:26;;;;;;;14.85;5.90;;;;;;;-139.48;100.00;61774.03;4975825;28;20138;-71
2021/10/07 04:07:09;;;;;;;11.50;6.40;;;;;;;-139.48;100.00;61774.03;4975737;28;20420;-70
2021/10/07 04:09:53;;;;;;;10.68;6.05;;;;;;;-139.48;100.00;61774.03;4974981;28;20053;-70
2021/10/07 04:12:37;;;;;;;16.05;6.95;;;;;;;-139.48;100.00;61774.03;4961338;28;20054;-71
2021/10/07 04:15:21;;;;;;;12.15;6.60;;;;;;;-139.48;100.00;61774.03;4974825;28;20512;-71
2021/10/07 04:18:05;;;;;;;12.40;6.82;;;;;;;-139.48;100.00;61774.03;4975125;28;20562;-70
2021/10/07 04:20:49;;;;;;;;;;;;;;;-139.48;100.00;61774.03;4975085;28;20145;-71
2021/10/07 04:23:33;;;;;;;14.17;7.43;;;;;;;-139.48;100.00;61774.03;4988456;28;20338;-70
2021/10/07 04:26:17;;;;;;;13.57;7.65;;;;;;;-139.48;100.00;61774.03;4974339;28;20279;-70
2021/10/07 04:29:01;;;;;;;9.52;7.30;;;;;;;-139.48;100.00;61774.03;4974924;28;20478;-71
2021/10/07 04:31:45;;;;;;;13.18;7.45;;;;;;;-139.48;100.00;61774.03;4974601;28;20050;-70
2021/10/07 04:34:29;;;;;;;18.08;7.95;;;;;;;-139.48;100.00;61774.03;4974336;28;20404;-70
2021/10/07 04:37:13;;;;;;;11.65;7.18;;;;;;;-139.48;100.00;61774.03;4974186;28;20062;-71
2021/10/07 04:39:58;;;;;;;13.80;8.00;;;;;;;-139.48;100.00;61774.03;4960769;28;20046;-70
2021/10/07 04:42:41;;;;;;;15.50;7.95;;;;;;;-139.48;100.00;61774.03;4975385;28;20520;-71
2021/10/07 04:45:26;;;;;;;14.07;8.63;;;;;;;-139.48;100.00;61774.03;4974256;28;20403;-71
2021/10/07 04:48:12;;;;;;;13.18;8.07;;;;;;;-139.48;100.00;61774.03;4974057;28;20130;-70
2021/10/07 04:50:56;;;;;;;21.08;9.73;;;;;;;-139.48;100.00;61774.03;4973981;28;20057;-71
2021/10/07 04:53:40;;;;;;;12.38;8.05;;;;;;;-139.48;100.00;61774.03;4974136;28;20105;-70
2021/10/07 04:56:24;;;;;;;17.13;9.35;;;;;;;-139.48;100.00;61774.03;4974088;28;20093;-70
2021/10/07 04:59:08;;;;;;;15.65;9.50;;;;;;;-139.48;100.00;61774.03;4973925;28;20080;-71
2021/10/07 05:01:52;;;;;;;14.05;9.65;;;;;;;-139.48;100.00;61774.03;4974815;28;20511;-71
2021/10/07 05:04:36;;;;;;;15.02;11.02;;;;;;;-139.48;100.00;61774.03;4973771;28;20045;-71
2021/10/07 05:07:20;;;;;;;12.82;9.43;;;;;;;-139.48;100.00;61774.03;4973930;28;20097;-70
2021/10/07 05:10:05;;;;;;;18.70;10.75;;;;;;;-139.48;100.00;61774.03;4960324;28;20050;-70
2021/10/07 05:12:49;;;;;;;13.88;9.27;;;;;;;-139.48;100.00;61774.03;4973535;28;20073;-70
2021/10/07 05:15:33;;;;;;;15.52;9.65;;;;;;;-139.48;100.00;61774.03;4973848;28;20049;-69
2021/10/07 05:18:17;;;;;;;18.25;9.90;;;;;;;-139.48;100.00;61774.03;4975078;28;20049;-70
2021/10/07 05:21:01;;;;;;;16.80;10.43;;;;;;;-139.48;100.00;61774.03;4973705;28;20105;-70
2021/10/07 05:23:44;;;;;;;18.92;10.20;;;;;;;-139.48;100.00;61774.03;4960137;28;20045;-70
2021/10/07 05:26:29;;;;;;;19.88;11.20;;;;;;;-139.48;100.00;61774.03;4973589;28;20085;-70
2021/10/07 05:29:12;;;;;;;16.17;10.27;;;;;;;-139.48;100.00;61774.03;4959742;28;20527;-69
2021/10/07 05:31:56;;;;;;;14.73;9.98;;;;;;;-139.48;100.00;61774.03;4974694;28;20057;-70
2021/10/07 05:34:40;;;;;;;13.68;9.90;;;;;;;-139.48;100.00;61774.03;4959974;28;20102;-70
2021/10/07 05:37:24;;;;;;;19.83;10.45;;;;;;;-139.48;100.00;61774.03;4973582;28;20054;-71
2021/10/07 05:40:09;;;;;;;21.90;10.82;;;;;;;-139.48;100.00;61774.03;4974704;28;20057;-70
2021/10/07 05:42:53;;;;;;;14.27;10.02;;;;;;;-139.48;100.00;61774.03;4974519;28;20101;-70
2021/10/07 05:45:37;;;;;;;19.50;11.43;;;;;;;-139.48;100.00;61774.03;4973445;28;20127;-71
2021/10/07 05:48:21;;;;;;;20.13;11.23;;;;;;;-139.48;100.00;61774.03;4973235;28;20153;-71
2021/10/07 05:51:05;;;;;;;16.20;11.02;;;;;;;-139.48;100.00;61774.03;4974735;28;20054;-70
2021/10/07 05:53:49;;;;;;;22.13;12.20;;;;;;;-139.48;100.00;61774.03;4974106;28;20057;-70
2021/10/07 05:56:34;;;;;;;23.98;11.50;;;;;;;-139.48;100.00;61774.03;4973363;28;20080;-70
2021/10/07 05:59:18;;;;;;;22.95;11.65;;;;;;;-139.48;100.00;61774.03;4973666;28;20066;-70
2021/10/07 06:02:02;;;;;;;17.27;10.82;;;;;;;-139.48;100.00;61774.03;4973346;28;20173;-70
2021/10/07 06:04:46;;;;;;;20.15;11.95;;;;;;;-139.48;100.00;61774.03;4973247;28;20046;-71
2021/10/07 06:07:30;;;;;;;17.05;11.48;;;;;;;-139.48;100.00;61774.03;4959675;28;20130;-68
2021/10/07 06:10:14;;;;;;;23.08;12.18;;;;;;;-139.48;100.00;61774.03;4959977;28;20049;-71
2021/10/07 06:12:59;;;;;;;22.55;11.52;;;;;;;-139.48;100.00;61774.03;4977312;28;20137;-70
2021/10/07 06:15:42;;;;;;;20.25;13.35;;;;;;;-139.48;100.00;61774.03;4976783;28;20124;-70
2021/10/07 06:18:26;;;;;;;24.15;13.15;;;;;;;-139.48;100.00;61774.03;4977026;28;20587;-70
2021/10/07 06:21:10;;;;;;;21.65;12.82;;;;;;;-139.48;100.00;61774.03;4976753;28;20133;-70
2021/10/07 06:23:54;;;;;;;18.35;12.57;;;;;;;-139.48;100.00;61774.03;4963149;28;20049;-69
2021/10/07 06:26:39;;;;;;;18.65;12.05;;;;;;;-139.48;100.00;61774.03;4963133;28;20105;-70
2021/10/07 06:29:23;;;;;;;20.80;12.13;;;;;;;-139.48;100.00;61774.03;4976570;28;20577;-70
2021/10/07 06:32:07;;;;;;;21.88;11.63;;;;;;;-139.48;100.00;61774.03;4976555;28;20104;-71
2021/10/07 06:34:51;;;;;;;22.48;12.40;;;;;;;-139.48;100.00;61774.03;4976638;28;20049;-70
2021/10/07 06:37:35;;;;;;;21.55;13.02;;;;;;;-139.48;100.00;61774.03;4963242;28;20479;-70
2021/10/07 06:40:19;;;;;;;24.65;12.85;;;;;;;-139.48;100.00;61774.03;4976905;28;20042;-71
2021/10/07 06:43:04;;;;;;;27.00;14.02;;;;;;;-139.48;100.00;61774.03;4976525;28;20098;-70
2021/10/07 06:45:49;;;;;;;19.45;13.07;;;;;;;-139.48;100.00;61774.03;4963009;28;20053;-70
2021/10/07 06:48:34;;;;;;;19.65;12.20;;;;;;;-139.48;100.00;61774.03;4977359;28;20072;-71
2021/10/07 06:51:18;;;;;;;23.55;13.27;;;;;;;-139.48;100.00;61774.03;4976142;28;20116;-70
2021/10/07 06:54:03;;;;;;;20.33;12.75;;;;;;;-139.48;100.00;61774.03;4977293;28;20070;-70
2021/10/07 06:56:47;;;;;;;22.70;12.38;;;;;;;-139.48;100.00;61774.03;4976294;28;20424;-70
2021/10/07 06:59:31;;;;;;;18.88;11.48;;;;;;;-139.48;100.00;61774.03;4976295;28;20081;-70
2021/10/07 07:02:15;;;;;;;17.20;11.75;;;;;;;-139.48;100.00;61774.03;4976251;28;20399;-70
2021/10/07 07:04:59;;;;;;;;;;;;;;;-139.48;100.00;61774.03;4976664;28;20097;-69
2021/10/07 07:07:43;;;;;;;18.88;12.60;;;;;;;-139.48;100.00;61774.03;4989870;28;20433;-71
2021/10/07 07:10:27;;;;;;;19.88;12.10;;;;;;;-139.48;100.00;61774.03;4976101;28;20130;-70
2021/10/07 07:13:11;;;;;;;19.88;12.00;;;;;;;-139.48;100.00;61774.03;4975956;28;20082;-70
2021/10/07 07:15:55;;;;;;;15.60;11.18;;;;;;;-139.48;100.00;61774.03;4976445;28;20110;-70
2021/10/07 07:18:40;;;;;;;17.63;11.68;;;;;;;-139.48;100.00;61774.03;4976652;28;20049;-71
2021/10/07 07:21:28;;;;;;;16.33;11.20;;;;;;;-139.48;100.00;61774.03;4975044;28;20408;-70
2021/10/07 07:24:12;;;;;;;16.98;11.05;;;;;;;-139.48;100.00;61774.03;4975011;28;20049;-70
2021/10/07 07:26:56;;;;;;;17.98;11.52;;;;;;;-139.48;100.00;61774.03;4961079;28;20415;-70
2021/10/07 07:29:40;;;;;;;19.42;10.32;;;;;;;-139.48;100.00;61774.03;4975382;28;20061;-70
2021/10/07 07:32:24;;;;;;;15.35;10.27;;;;;;;-139.48;100.00;61774.03;4961082;28;20065;-70
2021/10/07 07:35:08;;;;;;;13.05;9.82;;;;;;;-139.48;100.00;61774.03;4974762;28;20076;-70
2021/10/07 07:37:53;;;;;;;14.55;10.23;;;;;;;-139.48;100.00;61774.03;4960910;28;20594;-71
2021/10/07 07:40:36;;;;;;;19.65;10.35;;;;;;;-139.48;100.00;61774.03;4975494;28;20134;-70
2021/10/07 07:43:20;;;;;;;16.63;9.68;;;;;;;-139.48;100.00;61774.03;4975634;28;20053;-70
2021/10/07 07:46:04;;;;;;;14.32;10.10;;;;;;;-139.48;100.00;61774.03;4974462;28;20074;-70
2021/10/07 07:48:49;;;;;;;18.15;10.43;;;;;;;-139.48;100.00;61774.03;4974290;28;20121;-70
2021/10/07 07:51:32;;;;;;;15.77;9.57;;;;;;;-139.48;100.00;61774.03;4974373;28;20069;-70
2021/10/07 07:54:18;;;;;;;14.65;10.75;;;;;;;-139.48;100.00;61774.03;4960662;28;20192;-70
2021/10/07 07:57:02;;;;;;;14.05;9.73;;;;;;;-139.48;100.00;61774.03;4974354;28;20381;-70
2021/10/07 07:59:46;;;;;;;15.60;10.23;;;;;;;-139.48;100.00;61774.03;4960660;28;20058;-70
2021/10/07 08:02:30;;;;;;;12.60;9.70;;;;;;;-139.48;100.00;61774.03;4974309;28;20046;-70
2021/10/07 08:05:14;;;;;;;16.98;10.55;;;;;;;-139.48;100.00;61774.03;4960411;28;20146;-70
2021/10/07 08:07:58;;;;;;;17.02;10.30;;;;;;;-139.48;100.00;61774.03;4960511;28;20588;-70
2021/10/07 08:10:42;;;;;;;12.25;9.50;;;;;;;-139.48;100.00;61774.03;4975015;28;20046;-71
2021/10/07 08:13:26;;;;;;;14.63;9.35;;;;;;;-139.48;100.00;61774.03;4974915;28;20058;-71
2021/10/07 08:16:10;;;;;;;14.57;9.23;;;;;;;-139.48;100.00;61774.03;4974870;28;20571;-70
2021/10/07 08:18:54;;;;;;;13.15;9.65;;;;;;;-139.48;100.00;61774.03;4960035;28;20057;-71
2021/10/07 08:21:41;;;;;;;16.50;9.32;;;;;;;-139.48;100.00;61774.03;4960449;28;20185;-70
2021/10/07 08:24:25;;;;;;;12.20;7.93;;;;;;;-139.48;100.00;61774.03;4960617;28;20050;-71
2021/10/07 08:27:09;;;;;;;13.88;8.50;;;;;;;-139.48;100.00;61774.03;4959900;28;20076;-70
2021/10/07 08:29:53;;;;;;;;;;;;;;;-139.48;100.00;61774.03;4974544;28;20054;-70
2021/10/07 08:32:38;;;;;;;14.25;9.70;;;;;;;-139.48;100.00;61774.03;4974707;28;19965;-71
2021/10/07 08:35:22;;;;;;;17.45;11.48;;;;;;;-139.48;100.00;61774.03;4974411;28;20518;-70
2021/10/07 08:38:08;;;;;;;9.73;6.95;;;;;;;-139.48;100.00;61774.03;4973516;28;20049;-70
2021/10/07 08:40:52;;;;;;;9.90;6.53;;;;;;;-139.48;100.00;61774.03;4973373;28;20114;-71
2021/10/07 08:43:38;;;;;;;8.68;6.22;;;;;;;-139.48;100.00;61774.03;4973466;28;20075;-71
2021/10/07 08:46:22;;;;;;;10.40;7.18;;;;;;;-139.48;100.00;61774.03;4973609;28;20054;-70
2021/10/07 08:49:07;;;;;;;10.68;8.10;;;;;;;-139.48;100.00;61774.03;4959983;28;20086;-71
2021/10/07 08:51:52;;;;;;;13.25;7.90;;;;;;;-139.48;100.00;61774.03;4974330;28;20058;-71
2021/10/07 08:54:37;;;;;;;9.40;6.45;;;;;;;-139.48;100.00;61774.03;4973333;28;20113;-70
2021/10/07 08:57:20;;;;;;;8.40;5.80;;;;;;;-139.48;100.00;61774.03;4973230;28;20388;-71
2021/10/07 09:00:09;;;;;;;6.78;5.55;;;;;;;-139.48;100.00;61774.03;4959775;28;20054;-70
2021/10/07 09:02:56;;;;;;;7.55;5.53;;;;;;;-139.48;100.00;61774.03;4973025;28;20392;-70
2021/10/07 09:05:40;;;;;;;11.07;8.40;;;;;;;-139.48;100.00;61774.03;4972778;28;20057;-70
2021/10/07 09:08:24;;;;;;;7.82;5.22;;;;;;;-139.48;100.00;61774.03;4961145;28;20109;-70
2021/10/07 09:11:08;;;;;;;7.18;4.88;;;;;;;-139.48;100.00;61774.03;4972886;28;20069;-70
2021/10/07 09:14:01;;;;;;;6.90;5.18;;;;;;;-139.48;100.00;61774.03;4959312;28;20073;-70
2021/10/07 09:16:48;;;;;;;6.28;4.80;;;;;;;-139.48;100.00;61774.03;4972663;28;20061;-70
2021/10/07 09:19:39;;;;;;;7.38;4.90;;;;;;;-139.48;100.00;61774.03;4973668;28;20165;-70
2021/10/07 09:22:25;;;;;;;7.10;5.07;;;;;;;-139.48;100.00;61774.03;4972984;28;20100;-70
2021/10/07 09:25:09;;;;;;;5.78;4.22;;;;;;;-139.48;100.00;61774.03;4973533;28;20097;-69
2021/10/07 09:28:02;;;;;;;12.00;5.38;;;;;;;-139.48;100.00;61774.03;4973831;28;20142;-70
2021/10/07 09:30:46;;;;;;;5.85;4.10;;;;;;;-139.48;100.00;61774.03;4972749;28;20101;-70
2021/10/07 09:33:38;;;;;;;8.90;4.43;;;;;;;-139.48;100.00;61774.03;4972751;28;20137;-69
2021/10/07 09:36:22;;;;;;;8.50;5.60;;;;;;;-139.48;100.00;61774.03;4973633;28;20167;-69
2021/10/07 09:39:07;;;;;;;7.38;5.05;;;;;;;-139.48;100.00;61774.03;4972428;28;20053;-70
2021/10/07 09:41:51;;;;;;;6.22;4.32;;;;;;;-139.48;100.00;61774.03;4973849;28;20066;-70
2021/10/07 09:44:35;;;;;;;6.50;4.00;;;;;;;-139.48;100.00;61774.03;4958793;28;20192;-70
2021/10/07 09:47:26;;;;;;;;;;;;;;;-139.48;100.00;61774.03;4976495;28;20547;-70
2021/10/07 09:50:31;;;;;;;7.40;4.85;;;;;;;-139.48;100.00;61774.03;4977381;28;20344;-70
2021/10/07 09:53:17;;;;;;;5.82;4.28;;;;;;;-139.48;100.00;61774.03;4976483;28;20045;-70
2021/10/07 09:56:01;;;;;;;8.27;6.40;;;;;;;-139.48;100.00;61774.03;4976276;28;20057;-70
2021/10/07 09:58:44;;;;;;;;;;;;;;;-139.48;100.00;61774.03;4977844;28;20518;-71
2021/10/07 10:01:28;;;;;;;9.77;7.38;;;;;;;-139.48;100.00;61774.03;4977474;28;19921;-71
2021/10/07 10:04:12;;;;;;;;;;;;;;;-139.48;100.00;61774.03;4976850;28;20112;-70
2021/10/07 10:06:56;;;;;;;9.98;7.43;;;;;;;-139.48;100.00;61774.03;4989831;28;19960;-70
2021/10/07 10:09:40;;;;;;;;;;;;;;;-139.48;100.00;61774.03;4976468;28;20097;-71
2021/10/07 10:12:24;;;;;;;34.45;22.00;;;;;;;-139.48;100.00;61774.03;4989981;28;19925;-70
2021/10/07 10:15:10;;;;;;;11.38;7.45;;;;;;;-139.48;100.00;61774.03;4976236;28;20451;-70
2021/10/07 10:17:54;;;;;;;20.92;13.75;;;;;;;-139.48;100.00;61774.03;4975826;28;20045;-70
2021/10/07 10:20:41;;;;;;;8.02;6.72;;;;;;;-139.48;100.00;61774.03;4976840;28;20419;-69
2021/10/07 10:23:25;;;;;;;20.67;11.95;;;;;;;-139.48;100.00;61774.03;4976107;28;20407;-70
2021/10/07 10:26:13;;;;;;;19.65;14.70;;;;;;;-139.48;100.00;61774.03;4975366;28;20054;-70
2021/10/07 10:28:57;;;;;;;18.40;11.15;;;;;;;-139.48;100.00;61774.03;4976161;28;20640;-70
2021/10/07 10:31:40;;;;;;;10.77;8.10;;;;;;;-139.48;100.00;61774.03;4976689;28;20122;-70
2021/10/07 10:34:24;;;;;;;17.63;12.45;;;;;;;-139.48;100.00;61774.03;4976844;28;20113;-69
2021/10/07 10:37:09;;;;;;;12.68;9.30;;;;;;;-139.48;100.00;61774.03;4962150;28;20182;-70
2021/10/07 10:40:08;;;;;;;7.50;5.88;;;;;;;-139.48;100.00;61774.03;4975822;28;20049;-69
2021/10/07 10:43:19;;;;;;;8.55;4.80;;;;;;;-139.48;100.00;61774.03;4975788;28;20571;-70
2021/10/07 10:46:06;;;;;;;7.10;4.95;;;;;;;-139.48;100.00;61774.03;4975584;28;20506;-69
2021/10/07 10:48:51;;;;;;;6.32;4.43;;;;;;;-139.48;100.00;61774.03;4976634;28;20411;-71
2021/10/07 10:51:35;;;;;;;5.30;4.30;;;;;;;-139.48;100.00;61774.03;4976591;28;20045;-67
2021/10/07 10:54:29;;;;;;;7.00;4.20;;;;;;;-139.48;100.00;61774.03;4976476;28;20053;-69
2021/10/07 10:57:36;;;;;;;6.20;4.03;;;;;;;-139.48;100.00;61774.03;4975255;28;20061;-71
2021/10/07 11:00:37;;;;;;;6.57;4.22;;;;;;;-139.48;100.00;61774.03;4961710;28;20090;-71
2021/10/07 11:03:26;;;;;;;7.22;4.68;;;;;;;-139.48;100.00;61774.03;4975039;28;20054;-70
2021/10/07 11:06:10;;;;;;;10.52;8.45;;;;;;;-139.48;100.00;61774.03;4975318;28;20061;-71
2021/10/07 11:08:56;;;;;;;14.98;10.30;;;;;;;-139.48;100.00;61774.03;4961741;28;20049;-71
2021/10/07 11:11:45;;;;;;;7.53;5.40;;;;;;;-139.48;100.00;61774.03;4976190;28;20479;-71
2021/10/07 11:14:29;;;;;;;6.15;5.25;;;;;;;-139.48;100.00;61774.03;4976022;28;20484;-70
2021/10/07 11:17:13;;;;;;;5.70;4.30;;;;;;;-139.48;100.00;61774.03;4961223;28;20050;-71
2021/10/07 11:19:58;;;;;;;6.32;4.05;;;;;;;-139.48;100.00;61774.03;4974951;28;20056;-71
2021/10/07 11:23:01;;;;;;;;;;;;;;;-139.48;100.00;61774.03;4975587;28;20076;-71
2021/10/07 11:25:56;;;;;;;6.43;3.67;;;;;;;-139.48;100.00;61774.03;4988383;28;20023;-71
2021/10/07 11:28:44;;;;;;;4.53;4.10;;;;;;;-139.48;100.00;61774.03;4975989;28;20061;-69
2021/10/07 11:31:28;;;;;;;6.95;6.25;;;;;;;-139.48;100.00;61774.03;4988548;28;20053;-71
2021/10/07 11:34:12;;;;;;;7.15;6.35;;;;;;;-139.48;100.00;61774.03;4961391;28;20065;-70
2021/10/07 11:36:56;;;;;;;8.75;5.22;;;;;;;-139.48;100.00;61774.03;4974622;28;20053;-71
2021/10/07 11:39:40;;;;;;;6.05;5.45;;;;;;;-139.48;100.00;61774.03;4974686;28;20141;-71
2021/10/07 11:42:38;;;;;;;8.20;6.38;;;;;;;-139.48;100.00;61774.03;4974618;28;20053;-70
2021/10/07 11:45:25;;;;;;;5.60;4.63;;;;;;;-139.48;100.00;61774.03;4974462;28;20130;-71
2021/10/07 11:48:09;;;;;;;10.50;8.48;;;;;;;-139.48;100.00;61774.03;4974267;28;20082;-71
2021/10/07 11:50:59;;;;;;;8.30;5.90;;;;;;;-139.48;100.00;61774.03;4974560;28;20085;-71
2021/10/07 11:53:45;;;;;;;5.88;4.20;;;;;;;-139.48;100.00;61774.03;4974446;28;20057;-71
2021/10/07 11:56:32;;;;;;;5.53;4.97;;;;;;;-139.48;100.00;61774.03;4974185;28;20527;-70
2021/10/07 11:59:17;;;;;;;8.98;5.30;;;;;;;-139.48;100.00;61774.03;4975130;28;20081;-71
2021/10/07 12:02:01;;;;;;;11.15;6.93;;;;;;;-139.48;100.00;61774.03;4974310;28;20069;-69
2021/10/07 12:04:45;;;;;;;5.43;4.28;;;;;;;-139.48;100.00;61774.03;4974128;28;20098;-70
2021/10/07 12:07:28;;;;;;;4.93;4.43;;;;;;;-139.48;100.00;61774.03;4960524;28;20069;-70
2021/10/07 12:10:31;;;;;;;9.02;6.15;;;;;;;-139.48;100.00;61774.03;4973603;28;20054;-70
2021/10/07 12:13:43;;;;;;;5.18;4.50;;;;;;;-139.48;100.00;61774.03;4974975;28;20479;-69
2021/10/07 12:16:36;;;;;;;6.75;4.95;;;;;;;-139.48;100.00;61774.03;4973629;28;20114;-70
2021/10/07 12:19:24;;;;;;;3.83;3.50;;;;;;;-139.48;100.00;61774.03;4973934;28;20423;-71
2021/10/07 12:22:25;;;;;;;4.13;3.72;;;;;;;-139.48;100.00;61774.03;4973837;28;20054;-70
2021/10/07 12:25:09;;;;;;;3.72;3.13;;;;;;;-139.48;100.00;61774.03;4973650;28;20194;-70